createdAt,value
2018-07-03T00:00:54.794Z,101228.48
2018-07-03T00:05:47.889Z,101227.63
2018-07-03T00:10:40.854Z,101234.66
2018-07-03T00:15:33.872Z,101237.35
2018-07-03T00:20:26.870Z,101239.50
2018-07-03T00:25:19.945Z,101238.09
2018-07-03T00:30:13.028Z,101240.78
2018-07-03T00:35:06.069Z,101238.50
2018-07-03T00:39:59.086Z,101230.28
2018-07-03T00:44:52.073Z,101233.80
2018-07-03T00:49:45.028Z,101231.34
2018-07-03T00:54:38.030Z,101229.70
2018-07-03T00:59:31.032Z,101230.47
2018-07-03T01:04:24.013Z,101233.67
2018-07-03T01:09:17.041Z,101237.70
2018-07-03T01:14:10.093Z,101240.94
2018-07-03T01:19:03.171Z,101238.47
2018-07-03T01:23:56.178Z,101234.88
2018-07-03T01:28:49.148Z,101232.92
2018-07-03T01:33:42.172Z,101234.72
2018-07-03T01:38:35.174Z,101233.02
2018-07-03T01:43:28.207Z,101232.98
2018-07-03T01:48:21.212Z,101231.56
2018-07-03T01:53:14.247Z,101227.66
2018-07-03T01:58:07.497Z,101236.03
2018-07-03T02:03:00.463Z,101234.53
2018-07-03T02:07:54.685Z,101232.49
2018-07-03T02:12:47.707Z,101230.30
2018-07-03T02:17:40.732Z,101225.95
2018-07-03T02:22:33.728Z,101224.47
2018-07-03T02:27:26.701Z,101224.09
2018-07-03T02:32:19.733Z,101219.95
2018-07-03T02:37:12.712Z,101221.80
2018-07-03T02:42:05.837Z,101222.45
2018-07-03T02:46:58.706Z,101216.77
2018-07-03T02:51:51.717Z,101213.44
2018-07-03T02:56:44.661Z,101217.66
2018-07-03T03:01:37.623Z,101218.94
2018-07-03T03:06:30.638Z,101212.11
2018-07-03T03:11:23.835Z,101214.03
2018-07-03T03:16:16.832Z,101214.62
2018-07-03T03:21:09.911Z,101210.88
2018-07-03T03:26:02.904Z,101210.39
2018-07-03T03:30:55.881Z,101208.01
2018-07-03T03:35:48.946Z,101208.79
2018-07-03T03:40:41.887Z,101210.64
2018-07-03T03:45:34.926Z,101212.77
2018-07-03T03:50:27.948Z,101208.16
2018-07-03T03:55:20.895Z,101213.64
2018-07-03T04:00:13.868Z,101221.00
2018-07-03T04:05:07.062Z,101215.00
2018-07-03T04:10:00.009Z,101221.20
2018-07-03T04:14:52.963Z,101220.42
2018-07-03T04:19:46.008Z,101217.66
2018-07-03T04:24:39.076Z,101218.30
2018-07-03T04:29:32.016Z,101223.56
2018-07-03T04:34:25.030Z,101222.25
2018-07-03T04:39:18.030Z,101226.13
2018-07-03T04:44:11.005Z,101230.52
2018-07-03T04:49:04.087Z,101226.81
2018-07-03T04:53:57.055Z,101235.01
2018-07-03T04:58:50.003Z,101228.84
2018-07-03T05:03:43.245Z,101227.27
2018-07-03T05:08:36.200Z,101231.66
2018-07-03T05:13:29.308Z,101232.28
2018-07-03T05:18:22.483Z,101234.78
2018-07-03T05:23:15.552Z,101233.56
2018-07-03T05:28:08.495Z,101240.97
2018-07-03T05:33:01.468Z,101240.75
2018-07-03T05:37:54.617Z,101238.95
2018-07-03T05:42:47.645Z,101238.48
2018-07-03T05:47:40.665Z,101242.63
2018-07-03T05:52:33.817Z,101240.25
2018-07-03T05:57:27.054Z,101244.93
2018-07-03T06:02:20.000Z,101245.81
2018-07-03T06:07:12.973Z,101246.72
2018-07-03T06:12:06.118Z,101249.23
2018-07-03T06:16:59.334Z,101249.00
2018-07-03T06:21:53.050Z,101248.25
2018-07-03T06:26:46.074Z,101243.98
2018-07-03T06:31:39.080Z,101242.98
2018-07-03T06:36:32.011Z,101240.02
2018-07-03T06:41:25.097Z,101247.40
2018-07-03T06:46:18.064Z,101247.47
2018-07-03T06:51:11.783Z,101234.16
2018-07-03T06:56:05.327Z,101239.38
2018-07-03T07:00:58.763Z,101243.23
2018-07-03T07:05:52.453Z,101243.55
2018-07-03T07:10:46.099Z,101251.48
2018-07-03T07:15:39.405Z,101246.90
2018-07-03T07:20:32.508Z,101246.97
2018-07-03T07:25:25.999Z,101251.63
2018-07-03T07:30:19.830Z,101244.33
2018-07-03T07:35:13.128Z,101243.73
2018-07-03T07:40:06.842Z,101246.13
2018-07-03T07:45:00.591Z,101253.40
2018-07-03T07:49:54.512Z,101249.98
2018-07-03T07:54:48.050Z,101246.09
2018-07-03T07:59:41.408Z,101251.34
2018-07-03T08:04:35.058Z,101244.59
2018-07-03T08:09:28.568Z,101248.45
2018-07-03T08:14:21.662Z,101233.70
2018-07-03T08:19:15.266Z,101240.84
2018-07-03T08:24:08.405Z,101241.45
2018-07-03T08:29:01.626Z,101243.31
2018-07-03T08:33:55.133Z,101239.35
2018-07-03T08:38:48.415Z,101226.59
2018-07-03T08:43:41.605Z,101237.56
2018-07-03T08:48:34.696Z,101227.86
2018-07-03T08:53:27.884Z,101223.23
2018-07-03T08:58:20.885Z,101215.04
2018-07-03T09:03:13.815Z,101214.58
2018-07-03T09:08:06.842Z,101215.30
2018-07-03T09:13:00.014Z,101210.61
2018-07-03T09:17:53.354Z,101207.66
2018-07-03T09:22:46.233Z,101205.61
2018-07-03T09:27:39.279Z,101203.25
2018-07-03T09:32:32.392Z,101202.92
2018-07-03T09:37:25.390Z,101196.05
2018-07-03T09:42:18.360Z,101201.36
2018-07-03T09:47:11.325Z,101196.34
2018-07-03T09:52:04.327Z,101197.55
2018-07-03T09:56:57.424Z,101188.88
2018-07-03T10:01:50.421Z,101183.28
2018-07-03T10:06:43.375Z,101174.36
2018-07-03T10:11:36.396Z,101183.38
2018-07-03T10:16:29.559Z,101179.22
2018-07-03T10:21:22.744Z,101179.22
2018-07-03T10:26:15.860Z,101178.71
2018-07-03T10:31:09.038Z,101170.64
2018-07-03T10:36:02.207Z,101170.23
2018-07-03T10:40:55.310Z,101170.69
2018-07-03T10:45:48.389Z,101162.78
2018-07-03T10:50:41.363Z,101157.54
2018-07-03T10:55:34.448Z,101146.76
2018-07-03T11:00:27.457Z,101145.48
2018-07-03T11:05:20.471Z,101152.19
2018-07-03T11:10:13.444Z,101145.75
2018-07-03T11:15:06.633Z,101151.80
2018-07-03T11:19:59.632Z,101145.06
2018-07-03T11:24:52.818Z,101139.70
2018-07-03T11:29:45.826Z,101136.51
2018-07-03T11:34:38.801Z,101134.95
2018-07-03T11:39:31.819Z,101136.56
2018-07-03T11:44:24.922Z,101138.80
2018-07-03T11:49:18.007Z,101144.03
2018-07-03T11:54:11.113Z,101133.39
2018-07-03T11:59:04.158Z,101128.24
2018-07-03T12:03:57.210Z,101126.67
2018-07-03T12:08:50.171Z,101130.83
2018-07-03T12:13:43.190Z,101116.24
2018-07-03T12:18:41.748Z,101120.31
2018-07-03T12:23:34.895Z,101114.97
2018-07-03T12:28:27.778Z,101115.10
2018-07-03T12:33:20.726Z,101107.80
2018-07-03T12:38:13.744Z,101113.20
2018-07-03T12:43:06.809Z,101106.12
2018-07-03T12:47:59.976Z,101103.48
2018-07-03T12:52:53.031Z,101104.64
2018-07-03T12:57:46.125Z,101101.48
2018-07-03T13:02:39.042Z,101095.97
2018-07-03T13:07:32.200Z,101095.16
2018-07-03T13:12:25.132Z,101094.63
2018-07-03T13:17:18.092Z,101085.13
2018-07-03T13:22:11.160Z,101098.54
2018-07-03T13:27:04.277Z,101095.25
2018-07-03T13:31:57.411Z,101102.95
2018-07-03T13:36:50.315Z,101086.67
2018-07-03T13:41:43.265Z,101078.86
2018-07-03T13:46:36.417Z,101082.57
2018-07-03T13:51:29.706Z,101091.37
2018-07-03T13:56:22.620Z,101083.71
2018-07-03T14:01:15.693Z,101070.59
2018-07-03T14:06:08.750Z,101070.34
2018-07-03T14:11:01.820Z,101074.00
2018-07-03T14:15:54.868Z,101069.08
2018-07-03T14:20:47.931Z,101061.55
2018-07-03T14:25:40.977Z,101056.80
2018-07-03T14:30:33.923Z,101046.94
2018-07-03T14:35:26.847Z,101057.48
2018-07-03T14:40:20.016Z,101055.58
2018-07-03T14:45:13.133Z,101058.23
2018-07-03T14:50:06.228Z,101053.78
2018-07-03T14:54:59.237Z,101052.78
2018-07-03T14:59:52.414Z,101050.08
2018-07-03T15:04:45.408Z,101047.88
2018-07-03T15:09:38.370Z,101052.85
2018-07-03T15:14:31.263Z,101054.37
2018-07-03T15:19:30.076Z,101053.43
2018-07-03T15:24:23.090Z,101040.04
2018-07-03T15:29:16.099Z,101043.87
2018-07-03T15:34:09.870Z,101039.48
2018-07-03T15:39:05.228Z,101039.77
2018-07-03T15:44:15.368Z,101023.17
2018-07-03T15:49:08.352Z,101023.92
2018-07-03T15:54:01.295Z,101026.02
2018-07-03T15:58:54.519Z,101026.49
2018-07-03T16:05:11.427Z,101021.91
2018-07-03T16:10:04.784Z,101010.59
2018-07-03T16:14:57.747Z,101011.75
2018-07-03T16:19:56.224Z,101002.39
2018-07-03T16:24:49.314Z,101000.23
2018-07-03T16:29:42.260Z,101007.19
2018-07-03T16:34:35.329Z,101005.25
2018-07-03T16:39:28.360Z,101001.22
2018-07-03T16:44:21.389Z,100996.05
2018-07-03T16:49:14.352Z,100994.55
2018-07-03T16:54:07.475Z,100996.33
2018-07-03T16:59:00.411Z,100996.09
2018-07-03T17:03:53.373Z,100989.73
2018-07-03T17:08:46.412Z,100990.00
2018-07-03T17:13:39.460Z,100991.39
2018-07-03T17:18:32.420Z,100996.05
2018-07-03T17:23:25.405Z,100994.65
2018-07-03T17:28:18.352Z,100996.98
2018-07-03T17:33:11.348Z,100992.50
2018-07-03T17:38:04.429Z,100998.84
2018-07-03T17:44:16.652Z,100999.45
2018-07-03T17:49:09.636Z,100992.58
2018-07-03T17:54:02.620Z,100986.35
2018-07-03T17:58:55.732Z,100983.70
2018-07-03T18:03:48.834Z,100984.16
2018-07-03T18:08:41.860Z,100987.52
2018-07-03T18:13:35.018Z,100982.54
2018-07-03T18:18:28.645Z,100989.11
2018-07-03T18:23:21.680Z,100985.84
2018-07-03T18:28:14.751Z,100989.18
2018-07-03T18:33:07.743Z,100988.58
2018-07-03T18:38:00.721Z,100985.91
2018-07-03T18:42:53.697Z,100990.63
2018-07-03T18:47:46.644Z,100992.08
2018-07-03T18:52:39.649Z,100987.55
2018-07-03T18:57:32.711Z,100991.85
2018-07-03T19:02:25.730Z,100987.78
2018-07-03T19:07:18.679Z,100993.97
2018-07-03T19:12:11.720Z,100990.95
2018-07-03T19:17:04.869Z,100999.66
2018-07-03T19:21:57.759Z,100999.24
2018-07-03T19:26:50.707Z,101005.05
2018-07-03T19:31:43.728Z,101008.98
2018-07-03T19:36:36.811Z,101019.29
2018-07-03T19:41:29.687Z,101022.11
2018-07-03T19:46:22.632Z,101020.78
2018-07-03T19:51:15.639Z,101025.30
2018-07-03T19:56:08.691Z,101030.95
2018-07-03T20:01:01.689Z,101032.34
2018-07-03T20:05:54.708Z,101028.52
2018-07-03T20:10:47.684Z,101036.27
2018-07-03T20:15:40.739Z,101031.67
2018-07-03T20:20:33.776Z,101034.78
2018-07-03T20:25:26.741Z,101034.23
2018-07-03T20:30:20.165Z,101040.55
2018-07-03T20:35:13.207Z,101034.91
2018-07-03T20:40:06.256Z,101035.20
2018-07-03T20:44:59.188Z,101035.84
2018-07-03T20:49:52.124Z,101035.42
2018-07-03T20:54:45.080Z,101034.37
2018-07-03T20:59:38.034Z,101029.87
2018-07-03T21:04:31.078Z,101028.73
2018-07-03T21:09:24.064Z,101031.70
2018-07-03T21:14:16.975Z,101032.50
2018-07-03T21:19:10.019Z,101034.39
2018-07-03T21:24:03.107Z,101042.51
2018-07-03T21:28:56.057Z,101038.01
2018-07-03T21:33:48.965Z,101046.27
2018-07-03T21:38:42.067Z,101047.50
2018-07-03T21:43:35.084Z,101047.94
2018-07-03T21:48:27.982Z,101054.73
2018-07-03T21:53:21.011Z,101062.65
2018-07-03T21:58:13.988Z,101053.97
2018-07-03T22:03:08.987Z,101059.66
2018-07-03T22:08:02.187Z,101069.30
2018-07-03T22:12:55.223Z,101067.12
2018-07-03T22:17:48.128Z,101065.05
2018-07-03T22:22:41.116Z,101070.44
2018-07-03T22:27:34.166Z,101069.25
2018-07-03T22:32:27.132Z,101069.71
2018-07-03T22:37:20.935Z,101067.17
2018-07-03T22:42:13.826Z,101066.46
2018-07-03T22:47:06.776Z,101063.98
2018-07-03T22:51:59.761Z,101068.33
2018-07-03T22:56:52.896Z,101061.77
2018-07-03T23:01:45.874Z,101061.89
2018-07-03T23:06:38.879Z,101059.88
2018-07-03T23:11:31.821Z,101070.73
2018-07-03T23:16:24.796Z,101065.32
2018-07-03T23:21:17.819Z,101073.90
2018-07-03T23:26:10.775Z,101071.61
2018-07-03T23:31:03.757Z,101069.35
2018-07-03T23:35:56.729Z,101078.06
2018-07-03T23:40:49.626Z,101067.05
2018-07-03T23:45:50.538Z,101073.13
2018-07-03T23:51:00.472Z,101064.94
2018-07-03T23:56:10.646Z,101070.54
